Terminal Aerodrome Forecast
Issued by NWS Amarillo, TX

Home | Current Version | Previous Version | Text Only | Print | Product List | Glossary On
Versions: 1 2 3 4 5 6 7 8 9 10 11 12 13 14 15 16 17 18 19 20 21 22 23
000
FTUS44 KAMA 061600 AAA
TAFAMA
TAF AMD
KAMA 061605Z 0616/0712 20022G32KT P6SM FEW200
     FM061800 20028G40KT P6SM SCT200
      TEMPO 0618/0622 20024G34KT
     FM070100 20015KT P6SM SCT200=

USA.gov is the U.S. government's official web portal to all federal, state and local government web resources and services.